sensor_id;sensor_type;location;lat;lon;timestamp;pressure;altitude;pressure_sealevel;temperature
22828;BMP180;11580;52.562;13.418;2023-10-13T00:00:16;100549.00;;;18.90
22828;BMP180;11580;52.562;13.418;2023-10-13T00:02:57;100544.00;;;18.90
22828;BMP180;11580;52.562;13.418;2023-10-13T00:05:27;100542.00;;;18.90
22828;BMP180;11580;52.562;13.418;2023-10-13T00:07:57;100544.00;;;18.90
22828;BMP180;11580;52.562;13.418;2023-10-13T00:10:27;100538.00;;;18.90
22828;BMP180;11580;52.562;13.418;2023-10-13T00:12:55;100539.00;;;18.90
22828;BMP180;11580;52.562;13.418;2023-10-13T00:15:31;100536.00;;;18.90
22828;BMP180;11580;52.562;13.418;2023-10-13T00:18:06;100523.00;;;18.90
22828;BMP180;11580;52.562;13.418;2023-10-13T00:20:40;100522.00;;;18.90
22828;BMP180;11580;52.562;13.418;2023-10-13T00:23:12;100523.00;;;18.90
22828;BMP180;11580;52.562;13.418;2023-10-13T00:25:40;100519.00;;;18.90
22828;BMP180;11580;52.562;13.418;2023-10-13T00:28:16;100523.00;;;18.90
22828;BMP180;11580;52.562;13.418;2023-10-13T00:30:51;100516.00;;;18.90
22828;BMP180;11580;52.562;13.418;2023-10-13T00:33:20;100518.00;;;18.90
22828;BMP180;11580;52.562;13.418;2023-10-13T00:35:50;100525.00;;;18.90
22828;BMP180;11580;52.562;13.418;2023-10-13T00:38:18;100508.00;;;18.90
22828;BMP180;11580;52.562;13.418;2023-10-13T00:40:46;100506.00;;;18.90
22828;BMP180;11580;52.562;13.418;2023-10-13T00:43:19;100505.00;;;18.90
22828;BMP180;11580;52.562;13.418;2023-10-13T00:46:01;100503.00;;;18.90
22828;BMP180;11580;52.562;13.418;2023-10-13T00:48:42;100501.00;;;18.90
22828;BMP180;11580;52.562;13.418;2023-10-13T00:51:18;100500.00;;;18.90
22828;BMP180;11580;52.562;13.418;2023-10-13T00:53:49;100501.00;;;18.90
22828;BMP180;11580;52.562;13.418;2023-10-13T00:56:17;100493.00;;;18.90
22828;BMP180;11580;52.562;13.418;2023-10-13T00:58:48;100501.00;;;18.90
22828;BMP180;11580;52.562;13.418;2023-10-13T01:01:18;100498.00;;;18.90
22828;BMP180;11580;52.562;13.418;2023-10-13T01:03:48;100497.00;;;18.90
22828;BMP180;11580;52.562;13.418;2023-10-13T01:06:19;100504.00;;;18.90
22828;BMP180;11580;52.562;13.418;2023-10-13T01:08:47;100499.00;;;18.90
22828;BMP180;11580;52.562;13.418;2023-10-13T01:11:18;100503.00;;;18.90
22828;BMP180;11580;52.562;13.418;2023-10-13T01:13:46;100494.00;;;18.90
22828;BMP180;11580;52.562;13.418;2023-10-13T01:16:17;100497.00;;;18.90
22828;BMP180;11580;52.562;13.418;2023-10-13T01:18:48;100495.00;;;18.90
22828;BMP180;11580;52.562;13.418;2023-10-13T01:21:16;100494.00;;;18.90
22828;BMP180;11580;52.562;13.418;2023-10-13T01:23:48;100496.00;;;18.90
22828;BMP180;11580;52.562;13.418;2023-10-13T01:26:16;100488.00;;;18.90
22828;BMP180;11580;52.562;13.418;2023-10-13T01:28:50;100497.00;;;18.90
22828;BMP180;11580;52.562;13.418;2023-10-13T01:31:17;100502.00;;;18.90
22828;BMP180;11580;52.562;13.418;2023-10-13T01:33:55;100497.00;;;18.90
22828;BMP180;11580;52.562;13.418;2023-10-13T01:36:26;100498.00;;;18.90
22828;BMP180;11580;52.562;13.418;2023-10-13T01:38:55;100506.00;;;18.90
22828;BMP180;11580;52.562;13.418;2023-10-13T01:41:22;100502.00;;;18.90
22828;BMP180;11580;52.562;13.418;2023-10-13T01:43:49;100508.00;;;18.90
22828;BMP180;11580;52.562;13.418;2023-10-13T01:46:16;100496.00;;;18.90
22828;BMP180;11580;52.562;13.418;2023-10-13T01:48:45;100492.00;;;18.90
22828;BMP180;11580;52.562;13.418;2023-10-13T01:51:12;100496.00;;;18.90
22828;BMP180;11580;52.562;13.418;2023-10-13T01:53:39;100498.00;;;18.90
22828;BMP180;11580;52.562;13.418;2023-10-13T01:56:09;100493.00;;;18.90
22828;BMP180;11580;52.562;13.418;2023-10-13T01:58:40;100493.00;;;18.90
22828;BMP180;11580;52.562;13.418;2023-10-13T02:01:13;100488.00;;;18.80
22828;BMP180;11580;52.562;13.418;2023-10-13T02:03:40;100489.00;;;18.80
22828;BMP180;11580;52.562;13.418;2023-10-13T02:06:13;100493.00;;;18.90
22828;BMP180;11580;52.562;13.418;2023-10-13T02:08:44;100498.00;;;18.90
22828;BMP180;11580;52.562;13.418;2023-10-13T02:11:15;100495.00;;;18.90
22828;BMP180;11580;52.562;13.418;2023-10-13T02:13:44;100486.00;;;18.90
22828;BMP180;11580;52.562;13.418;2023-10-13T02:16:19;100486.00;;;18.90
22828;BMP180;11580;52.562;13.418;2023-10-13T02:18:48;100486.00;;;18.90
22828;BMP180;11580;52.562;13.418;2023-10-13T02:21:18;100476.00;;;18.90
22828;BMP180;11580;52.562;13.418;2023-10-13T02:23:44;100473.00;;;18.90
22828;BMP180;11580;52.562;13.418;2023-10-13T02:26:28;100449.00;;;18.90
22828;BMP180;11580;52.562;13.418;2023-10-13T02:28:58;100442.00;;;18.90
22828;BMP180;11580;52.562;13.418;2023-10-13T02:31:27;100431.00;;;18.90
22828;BMP180;11580;52.562;13.418;2023-10-13T02:33:54;100430.00;;;18.90
22828;BMP180;11580;52.562;13.418;2023-10-13T02:36:22;100446.00;;;18.80
22828;BMP180;11580;52.562;13.418;2023-10-13T02:38:49;100455.00;;;18.80
22828;BMP180;11580;52.562;13.418;2023-10-13T02:41:19;100451.00;;;18.90
22828;BMP180;11580;52.562;13.418;2023-10-13T02:43:54;100446.00;;;18.80
22828;BMP180;11580;52.562;13.418;2023-10-13T02:46:23;100445.00;;;18.80
22828;BMP180;11580;52.562;13.418;2023-10-13T02:48:50;100444.00;;;18.80
22828;BMP180;11580;52.562;13.418;2023-10-13T02:51:20;100439.00;;;18.80
22828;BMP180;11580;52.562;13.418;2023-10-13T02:53:51;100439.00;;;18.80
22828;BMP180;11580;52.562;13.418;2023-10-13T02:56:20;100437.00;;;18.80
22828;BMP180;11580;52.562;13.418;2023-10-13T02:58:48;100421.00;;;18.80
22828;BMP180;11580;52.562;13.418;2023-10-13T03:01:20;100432.00;;;18.90
22828;BMP180;11580;52.562;13.418;2023-10-13T03:03:51;100425.00;;;18.90
22828;BMP180;11580;52.562;13.418;2023-10-13T03:06:22;100425.00;;;18.90
22828;BMP180;11580;52.562;13.418;2023-10-13T03:08:52;100415.00;;;18.90
22828;BMP180;11580;52.562;13.418;2023-10-13T03:11:18;100419.00;;;18.90
22828;BMP180;11580;52.562;13.418;2023-10-13T03:13:49;100409.00;;;18.90
22828;BMP180;11580;52.562;13.418;2023-10-13T03:16:18;100412.00;;;18.90
22828;BMP180;11580;52.562;13.418;2023-10-13T03:18:48;100405.00;;;18.90
22828;BMP180;11580;52.562;13.418;2023-10-13T03:21:21;100399.00;;;18.90
22828;BMP180;11580;52.562;13.418;2023-10-13T03:23:59;100400.00;;;18.90
22828;BMP180;11580;52.562;13.418;2023-10-13T03:26:32;100368.00;;;18.90
22828;BMP180;11580;52.562;13.418;2023-10-13T03:29:03;100391.00;;;18.90
22828;BMP180;11580;52.562;13.418;2023-10-13T03:31:38;100388.00;;;18.90
22828;BMP180;11580;52.562;13.418;2023-10-13T03:34:07;100379.00;;;18.90
22828;BMP180;11580;52.562;13.418;2023-10-13T03:36:38;100373.00;;;19.00
22828;BMP180;11580;52.562;13.418;2023-10-13T03:39:25;100370.00;;;18.90
22828;BMP180;11580;52.562;13.418;2023-10-13T03:41:59;100373.00;;;18.90
22828;BMP180;11580;52.562;13.418;2023-10-13T03:44:31;100364.00;;;18.90
22828;BMP180;11580;52.562;13.418;2023-10-13T03:46:58;100361.00;;;19.00
22828;BMP180;11580;52.562;13.418;2023-10-13T03:49:45;100359.00;;;19.00
22828;BMP180;11580;52.562;13.418;2023-10-13T03:52:17;100362.00;;;19.00
22828;BMP180;11580;52.562;13.418;2023-10-13T03:54:48;100360.00;;;19.00
22828;BMP180;11580;52.562;13.418;2023-10-13T03:57:17;100362.00;;;19.00
22828;BMP180;11580;52.562;13.418;2023-10-13T03:59:44;100351.00;;;19.00
22828;BMP180;11580;52.562;13.418;2023-10-13T04:02:14;100349.00;;;19.00
22828;BMP180;11580;52.562;13.418;2023-10-13T04:04:48;100342.00;;;19.00
22828;BMP180;11580;52.562;13.418;2023-10-13T04:07:19;100336.00;;;19.00
22828;BMP180;11580;52.562;13.418;2023-10-13T04:10:07;100340.00;;;19.00
22828;BMP180;11580;52.562;13.418;2023-10-13T04:12:52;100345.00;;;19.00
22828;BMP180;11580;52.562;13.418;2023-10-13T04:15:51;100346.00;;;19.00
22828;BMP180;11580;52.562;13.418;2023-10-13T04:19:00;100349.00;;;19.00
22828;BMP180;11580;52.562;13.418;2023-10-13T04:21:36;100348.00;;;19.00
22828;BMP180;11580;52.562;13.418;2023-10-13T04:24:11;100336.00;;;19.00
22828;BMP180;11580;52.562;13.418;2023-10-13T04:27:03;100336.00;;;19.10
22828;BMP180;11580;52.562;13.418;2023-10-13T04:29:57;100336.00;;;19.10
22828;BMP180;11580;52.562;13.418;2023-10-13T04:32:36;100335.00;;;19.10
22828;BMP180;11580;52.562;13.418;2023-10-13T04:35:12;100322.00;;;19.10
22828;BMP180;11580;52.562;13.418;2023-10-13T04:37:46;100313.00;;;19.10
22828;BMP180;11580;52.562;13.418;2023-10-13T04:40:21;100318.00;;;19.10
22828;BMP180;11580;52.562;13.418;2023-10-13T04:42:51;100314.00;;;19.10
22828;BMP180;11580;52.562;13.418;2023-10-13T04:45:23;100316.00;;;19.20
22828;BMP180;11580;52.562;13.418;2023-10-13T04:48:05;100297.00;;;19.20
22828;BMP180;11580;52.562;13.418;2023-10-13T04:51:00;100295.00;;;19.20
22828;BMP180;11580;52.562;13.418;2023-10-13T04:54:10;100300.00;;;19.20
22828;BMP180;11580;52.562;13.418;2023-10-13T04:56:51;100299.00;;;19.20
22828;BMP180;11580;52.562;13.418;2023-10-13T04:59:45;100292.00;;;19.20
22828;BMP180;11580;52.562;13.418;2023-10-13T05:02:30;100267.00;;;19.20
22828;BMP180;11580;52.562;13.418;2023-10-13T05:05:22;100296.00;;;19.20
22828;BMP180;11580;52.562;13.418;2023-10-13T05:08:11;100293.00;;;19.20
22828;BMP180;11580;52.562;13.418;2023-10-13T05:10:57;100287.00;;;19.20
22828;BMP180;11580;52.562;13.418;2023-10-13T05:13:42;100297.00;;;19.20
22828;BMP180;11580;52.562;13.418;2023-10-13T05:16:26;100300.00;;;19.20
22828;BMP180;11580;52.562;13.418;2023-10-13T05:19:11;100300.00;;;19.30
22828;BMP180;11580;52.562;13.418;2023-10-13T05:21:55;100288.00;;;19.30
22828;BMP180;11580;52.562;13.418;2023-10-13T05:24:42;100292.00;;;19.30
22828;BMP180;11580;52.562;13.418;2023-10-13T05:27:28;100277.00;;;19.30
22828;BMP180;11580;52.562;13.418;2023-10-13T05:30:13;100288.00;;;19.30
22828;BMP180;11580;52.562;13.418;2023-10-13T05:32:57;100284.00;;;19.30
22828;BMP180;11580;52.562;13.418;2023-10-13T05:35:41;100287.00;;;19.40
22828;BMP180;11580;52.562;13.418;2023-10-13T05:38:25;100287.00;;;19.40
22828;BMP180;11580;52.562;13.418;2023-10-13T05:41:10;100287.00;;;19.40
22828;BMP180;11580;52.562;13.418;2023-10-13T05:43:56;100296.00;;;19.50
22828;BMP180;11580;52.562;13.418;2023-10-13T05:46:41;100283.00;;;19.50
22828;BMP180;11580;52.562;13.418;2023-10-13T05:49:27;100285.00;;;19.50
22828;BMP180;11580;52.562;13.418;2023-10-13T05:52:16;100285.00;;;19.50
22828;BMP180;11580;52.562;13.418;2023-10-13T05:55:06;100273.00;;;19.60
22828;BMP180;11580;52.562;13.418;2023-10-13T05:57:51;100273.00;;;19.60
22828;BMP180;11580;52.562;13.418;2023-10-13T06:00:41;100274.00;;;19.60
22828;BMP180;11580;52.562;13.418;2023-10-13T06:03:25;100276.00;;;19.60
22828;BMP180;11580;52.562;13.418;2023-10-13T06:06:10;100277.00;;;19.70
22828;BMP180;11580;52.562;13.418;2023-10-13T06:08:54;100274.00;;;19.70
22828;BMP180;11580;52.562;13.418;2023-10-13T06:11:39;100272.00;;;19.80
22828;BMP180;11580;52.562;13.418;2023-10-13T06:14:23;100258.00;;;19.80
22828;BMP180;11580;52.562;13.418;2023-10-13T06:17:09;100262.00;;;19.90
22828;BMP180;11580;52.562;13.418;2023-10-13T06:19:53;100265.00;;;20.00
22828;BMP180;11580;52.562;13.418;2023-10-13T06:22:38;100261.00;;;20.10
22828;BMP180;11580;52.562;13.418;2023-10-13T06:25:23;100267.00;;;20.20
22828;BMP180;11580;52.562;13.418;2023-10-13T06:28:08;100260.00;;;20.20
22828;BMP180;11580;52.562;13.418;2023-10-13T06:30:58;100267.00;;;20.20
22828;BMP180;11580;52.562;13.418;2023-10-13T06:33:28;100265.00;;;20.30
22828;BMP180;11580;52.562;13.418;2023-10-13T06:35:58;100263.00;;;20.30
22828;BMP180;11580;52.562;13.418;2023-10-13T06:38:26;100267.00;;;20.30
22828;BMP180;11580;52.562;13.418;2023-10-13T06:40:57;100264.00;;;20.20
22828;BMP180;11580;52.562;13.418;2023-10-13T06:43:24;100262.00;;;20.20
22828;BMP180;11580;52.562;13.418;2023-10-13T06:46:00;100253.00;;;20.20
22828;BMP180;11580;52.562;13.418;2023-10-13T06:48:28;100257.00;;;20.20
22828;BMP180;11580;52.562;13.418;2023-10-13T06:50:59;100261.00;;;20.20
22828;BMP180;11580;52.562;13.418;2023-10-13T06:53:30;100253.00;;;20.20
22828;BMP180;11580;52.562;13.418;2023-10-13T06:56:06;100258.00;;;20.20
22828;BMP180;11580;52.562;13.418;2023-10-13T06:58:35;100255.00;;;20.20
22828;BMP180;11580;52.562;13.418;2023-10-13T07:01:07;100247.00;;;20.20
22828;BMP180;11580;52.562;13.418;2023-10-13T07:03:42;100255.00;;;20.30
22828;BMP180;11580;52.562;13.418;2023-10-13T07:06:09;100258.00;;;20.30
22828;BMP180;11580;52.562;13.418;2023-10-13T07:08:44;100258.00;;;20.40
22828;BMP180;11580;52.562;13.418;2023-10-13T07:11:18;100257.00;;;20.50
22828;BMP180;11580;52.562;13.418;2023-10-13T07:13:49;100252.00;;;20.60
22828;BMP180;11580;52.562;13.418;2023-10-13T07:16:18;100251.00;;;20.70
22828;BMP180;11580;52.562;13.418;2023-10-13T07:18:46;100254.00;;;20.90
22828;BMP180;11580;52.562;13.418;2023-10-13T07:21:18;100259.00;;;21.00
22828;BMP180;11580;52.562;13.418;2023-10-13T07:23:56;100264.00;;;21.10
22828;BMP180;11580;52.562;13.418;2023-10-13T07:26:34;100256.00;;;21.30
22828;BMP180;11580;52.562;13.418;2023-10-13T07:29:09;100251.00;;;21.40
22828;BMP180;11580;52.562;13.418;2023-10-13T07:31:36;100254.00;;;21.60
22828;BMP180;11580;52.562;13.418;2023-10-13T07:34:08;100253.00;;;21.70
22828;BMP180;11580;52.562;13.418;2023-10-13T07:36:46;100248.00;;;21.80
22828;BMP180;11580;52.562;13.418;2023-10-13T07:39:15;100244.00;;;21.90
22828;BMP180;11580;52.562;13.418;2023-10-13T07:41:48;100224.00;;;21.90
22828;BMP180;11580;52.562;13.418;2023-10-13T07:44:21;100246.00;;;22.00
22828;BMP180;11580;52.562;13.418;2023-10-13T07:46:53;100243.00;;;22.10
22828;BMP180;11580;52.562;13.418;2023-10-13T07:49:35;100237.00;;;22.10
22828;BMP180;11580;52.562;13.418;2023-10-13T07:52:07;100243.00;;;22.20
22828;BMP180;11580;52.562;13.418;2023-10-13T07:55:02;100237.00;;;22.20
22828;BMP180;11580;52.562;13.418;2023-10-13T07:57:38;100236.00;;;22.30
22828;BMP180;11580;52.562;13.418;2023-10-13T08:00:19;100234.00;;;22.40
22828;BMP180;11580;52.562;13.418;2023-10-13T08:02:58;100235.00;;;22.50
22828;BMP180;11580;52.562;13.418;2023-10-13T08:05:36;100235.00;;;22.60
22828;BMP180;11580;52.562;13.418;2023-10-13T08:08:22;100240.00;;;22.60
22828;BMP180;11580;52.562;13.418;2023-10-13T08:10:52;100233.00;;;22.70
22828;BMP180;11580;52.562;13.418;2023-10-13T08:13:22;100224.00;;;22.80
22828;BMP180;11580;52.562;13.418;2023-10-13T08:15:49;100221.00;;;22.80
22828;BMP180;11580;52.562;13.418;2023-10-13T08:18:18;100223.00;;;22.90
22828;BMP180;11580;52.562;13.418;2023-10-13T08:20:58;100221.00;;;22.90
22828;BMP180;11580;52.562;13.418;2023-10-13T08:23:29;100228.00;;;23.00
22828;BMP180;11580;52.562;13.418;2023-10-13T08:26:16;100215.00;;;23.10
22828;BMP180;11580;52.562;13.418;2023-10-13T08:29:05;100216.00;;;23.10
22828;BMP180;11580;52.562;13.418;2023-10-13T08:31:46;100213.00;;;23.20
22828;BMP180;11580;52.562;13.418;2023-10-13T08:34:30;100214.00;;;23.30
22828;BMP180;11580;52.562;13.418;2023-10-13T08:37:06;100213.00;;;23.40
22828;BMP180;11580;52.562;13.418;2023-10-13T08:39:45;100215.00;;;23.50
22828;BMP180;11580;52.562;13.418;2023-10-13T08:42:45;100210.00;;;23.50
22828;BMP180;11580;52.562;13.418;2023-10-13T08:45:38;100211.00;;;23.60
22828;BMP180;11580;52.562;13.418;2023-10-13T08:48:25;100204.00;;;23.60
22828;BMP180;11580;52.562;13.418;2023-10-13T08:50:59;100197.00;;;23.70
22828;BMP180;11580;52.562;13.418;2023-10-13T08:54:02;100185.00;;;23.70
22828;BMP180;11580;52.562;13.418;2023-10-13T08:56:35;100195.00;;;23.80
22828;BMP180;11580;52.562;13.418;2023-10-13T08:59:12;100187.00;;;23.80
22828;BMP180;11580;52.562;13.418;2023-10-13T09:01:48;100185.00;;;23.80
22828;BMP180;11580;52.562;13.418;2023-10-13T09:04:26;100169.00;;;23.80
22828;BMP180;11580;52.562;13.418;2023-10-13T09:07:01;100176.00;;;23.80
22828;BMP180;11580;52.562;13.418;2023-10-13T09:09:46;100170.00;;;23.80
22828;BMP180;11580;52.562;13.418;2023-10-13T09:12:39;100172.00;;;23.80
22828;BMP180;11580;52.562;13.418;2023-10-13T09:15:30;100175.00;;;23.80
22828;BMP180;11580;52.562;13.418;2023-10-13T09:18:24;100172.00;;;23.80
22828;BMP180;11580;52.562;13.418;2023-10-13T09:21:09;100174.00;;;23.80
22828;BMP180;11580;52.562;13.418;2023-10-13T09:23:53;100167.00;;;23.80
22828;BMP180;11580;52.562;13.418;2023-10-13T09:26:42;100164.00;;;23.80
22828;BMP180;11580;52.562;13.418;2023-10-13T09:29:16;100159.00;;;23.80
22828;BMP180;11580;52.562;13.418;2023-10-13T09:31:46;100155.00;;;23.70
22828;BMP180;11580;52.562;13.418;2023-10-13T09:34:21;100154.00;;;23.70
22828;BMP180;11580;52.562;13.418;2023-10-13T09:36:58;100145.00;;;23.70
22828;BMP180;11580;52.562;13.418;2023-10-13T09:39:25;100141.00;;;23.70
22828;BMP180;11580;52.562;13.418;2023-10-13T09:42:12;100139.00;;;23.70
22828;BMP180;11580;52.562;13.418;2023-10-13T09:44:41;100130.00;;;23.70
22828;BMP180;11580;52.562;13.418;2023-10-13T09:47:22;100129.00;;;23.80
22828;BMP180;11580;52.562;13.418;2023-10-13T09:50:00;100115.00;;;23.80
22828;BMP180;11580;52.562;13.418;2023-10-13T09:52:40;100105.00;;;23.90
22828;BMP180;11580;52.562;13.418;2023-10-13T09:55:24;100118.00;;;23.90
22828;BMP180;11580;52.562;13.418;2023-10-13T09:58:04;100107.00;;;23.90
22828;BMP180;11580;52.562;13.418;2023-10-13T10:00:41;100095.00;;;23.80
22828;BMP180;11580;52.562;13.418;2023-10-13T10:03:14;100078.00;;;23.80
22828;BMP180;11580;52.562;13.418;2023-10-13T10:05:42;100090.00;;;23.80
22828;BMP180;11580;52.562;13.418;2023-10-13T10:08:24;100077.00;;;23.80
22828;BMP180;11580;52.562;13.418;2023-10-13T10:14:07;100083.00;;;23.70
22828;BMP180;11580;52.562;13.418;2023-10-13T10:17:04;100082.00;;;23.60
22828;BMP180;11580;52.562;13.418;2023-10-13T10:19:47;100076.00;;;23.70
22828;BMP180;11580;52.562;13.418;2023-10-13T10:22:26;100087.00;;;23.70
22828;BMP180;11580;52.562;13.418;2023-10-13T10:24:57;100086.00;;;23.70
22828;BMP180;11580;52.562;13.418;2023-10-13T10:27:29;100077.00;;;23.70
22828;BMP180;11580;52.562;13.418;2023-10-13T10:29:59;100068.00;;;23.70
22828;BMP180;11580;52.562;13.418;2023-10-13T10:32:37;100060.00;;;23.70
22828;BMP180;11580;52.562;13.418;2023-10-13T10:35:08;100059.00;;;23.70
22828;BMP180;11580;52.562;13.418;2023-10-13T10:37:41;100067.00;;;23.70
22828;BMP180;11580;52.562;13.418;2023-10-13T10:40:14;100084.00;;;23.70
22828;BMP180;11580;52.562;13.418;2023-10-13T10:43:04;100075.00;;;23.70
22828;BMP180;11580;52.562;13.418;2023-10-13T10:45:36;100086.00;;;23.60
22828;BMP180;11580;52.562;13.418;2023-10-13T10:48:12;100048.00;;;23.60
22828;BMP180;11580;52.562;13.418;2023-10-13T10:50:45;100056.00;;;23.50
22828;BMP180;11580;52.562;13.418;2023-10-13T10:53:20;100043.00;;;23.40
22828;BMP180;11580;52.562;13.418;2023-10-13T10:55:48;100047.00;;;23.40
22828;BMP180;11580;52.562;13.418;2023-10-13T10:58:15;100044.00;;;23.30
22828;BMP180;11580;52.562;13.418;2023-10-13T11:01:06;100026.00;;;23.30
22828;BMP180;11580;52.562;13.418;2023-10-13T11:03:36;100018.00;;;23.30
22828;BMP180;11580;52.562;13.418;2023-10-13T11:06:12;100007.00;;;23.30
22828;BMP180;11580;52.562;13.418;2023-10-13T11:08:44;100000.00;;;23.30
22828;BMP180;11580;52.562;13.418;2023-10-13T11:11:28;100010.00;;;23.30
22828;BMP180;11580;52.562;13.418;2023-10-13T11:14:02;100011.00;;;23.30
22828;BMP180;11580;52.562;13.418;2023-10-13T11:16:47;100017.00;;;23.40
22828;BMP180;11580;52.562;13.418;2023-10-13T11:19:20;99996.00;;;23.40
22828;BMP180;11580;52.562;13.418;2023-10-13T11:21:54;100006.00;;;23.50
22828;BMP180;11580;52.562;13.418;2023-10-13T11:24:22;100002.00;;;23.50
22828;BMP180;11580;52.562;13.418;2023-10-13T11:26:49;99981.00;;;23.50
22828;BMP180;11580;52.562;13.418;2023-10-13T11:29:19;99971.00;;;23.60
22828;BMP180;11580;52.562;13.418;2023-10-13T11:31:49;100006.00;;;23.60
22828;BMP180;11580;52.562;13.418;2023-10-13T11:34:23;100006.00;;;23.60
22828;BMP180;11580;52.562;13.418;2023-10-13T11:36:50;99988.00;;;23.60
22828;BMP180;11580;52.562;13.418;2023-10-13T11:39:18;99992.00;;;23.60
22828;BMP180;11580;52.562;13.418;2023-10-13T11:41:50;99974.00;;;23.70
22828;BMP180;11580;52.562;13.418;2023-10-13T11:44:21;99970.00;;;23.70
22828;BMP180;11580;52.562;13.418;2023-10-13T11:46:58;99965.00;;;23.70
22828;BMP180;11580;52.562;13.418;2023-10-13T11:49:53;99968.00;;;23.80
22828;BMP180;11580;52.562;13.418;2023-10-13T11:52:24;99965.00;;;23.80
22828;BMP180;11580;52.562;13.418;2023-10-13T11:54:53;99962.00;;;23.90
22828;BMP180;11580;52.562;13.418;2023-10-13T11:57:20;99967.00;;;23.90
22828;BMP180;11580;52.562;13.418;2023-10-13T11:59:47;99950.00;;;24.00
22828;BMP180;11580;52.562;13.418;2023-10-13T12:02:23;99954.00;;;24.00
22828;BMP180;11580;52.562;13.418;2023-10-13T12:05:08;99943.00;;;24.00
22828;BMP180;11580;52.562;13.418;2023-10-13T12:07:43;99931.00;;;24.00
22828;BMP180;11580;52.562;13.418;2023-10-13T12:10:14;99930.00;;;24.10
22828;BMP180;11580;52.562;13.418;2023-10-13T12:13:01;99932.00;;;24.20
22828;BMP180;11580;52.562;13.418;2023-10-13T12:15:34;99926.00;;;24.20
22828;BMP180;11580;52.562;13.418;2023-10-13T12:18:16;99925.00;;;24.30
22828;BMP180;11580;52.562;13.418;2023-10-13T12:20:45;99924.00;;;24.30
22828;BMP180;11580;52.562;13.418;2023-10-13T12:23:13;99918.00;;;24.40
22828;BMP180;11580;52.562;13.418;2023-10-13T12:25:46;99913.00;;;24.40
22828;BMP180;11580;52.562;13.418;2023-10-13T12:28:24;99916.00;;;24.40
22828;BMP180;11580;52.562;13.418;2023-10-13T12:30:56;99907.00;;;24.50
22828;BMP180;11580;52.562;13.418;2023-10-13T12:33:34;99907.00;;;24.50
22828;BMP180;11580;52.562;13.418;2023-10-13T12:36:06;99899.00;;;24.60
22828;BMP180;11580;52.562;13.418;2023-10-13T12:38:36;99885.00;;;24.60
22828;BMP180;11580;52.562;13.418;2023-10-13T12:41:18;99896.00;;;24.70
22828;BMP180;11580;52.562;13.418;2023-10-13T12:44:05;99890.00;;;24.70
22828;BMP180;11580;52.562;13.418;2023-10-13T12:46:50;99891.00;;;24.80
22828;BMP180;11580;52.562;13.418;2023-10-13T12:49:37;99886.00;;;24.80
22828;BMP180;11580;52.562;13.418;2023-10-13T12:52:18;99880.00;;;24.90
22828;BMP180;11580;52.562;13.418;2023-10-13T12:54:46;99885.00;;;25.00
22828;BMP180;11580;52.562;13.418;2023-10-13T12:57:25;99876.00;;;25.00
22828;BMP180;11580;52.562;13.418;2023-10-13T12:59:52;99873.00;;;25.10
22828;BMP180;11580;52.562;13.418;2023-10-13T13:02:20;99866.00;;;25.20
22828;BMP180;11580;52.562;13.418;2023-10-13T13:04:52;99853.00;;;25.20
22828;BMP180;11580;52.562;13.418;2023-10-13T13:07:23;99844.00;;;25.30
22828;BMP180;11580;52.562;13.418;2023-10-13T13:09:55;99844.00;;;25.30
22828;BMP180;11580;52.562;13.418;2023-10-13T13:12:25;99835.00;;;25.30
22828;BMP180;11580;52.562;13.418;2023-10-13T13:14:54;99838.00;;;25.40
22828;BMP180;11580;52.562;13.418;2023-10-13T13:17:22;99839.00;;;25.40
22828;BMP180;11580;52.562;13.418;2023-10-13T13:19:50;99824.00;;;25.50
22828;BMP180;11580;52.562;13.418;2023-10-13T13:22:17;99828.00;;;25.50
22828;BMP180;11580;52.562;13.418;2023-10-13T13:24:46;99826.00;;;25.60
22828;BMP180;11580;52.562;13.418;2023-10-13T13:27:15;99826.00;;;25.60
22828;BMP180;11580;52.562;13.418;2023-10-13T13:29:45;99824.00;;;25.60
22828;BMP180;11580;52.562;13.418;2023-10-13T13:32:12;99825.00;;;25.70
22828;BMP180;11580;52.562;13.418;2023-10-13T13:34:45;99823.00;;;25.70
22828;BMP180;11580;52.562;13.418;2023-10-13T13:37:21;99805.00;;;25.80
22828;BMP180;11580;52.562;13.418;2023-10-13T13:39:49;99807.00;;;25.90
22828;BMP180;11580;52.562;13.418;2023-10-13T13:42:18;99800.00;;;25.90
22828;BMP180;11580;52.562;13.418;2023-10-13T13:44:46;99789.00;;;26.00
22828;BMP180;11580;52.562;13.418;2023-10-13T13:47:13;99808.00;;;26.10
22828;BMP180;11580;52.562;13.418;2023-10-13T13:49:41;99788.00;;;26.20
22828;BMP180;11580;52.562;13.418;2023-10-13T13:52:17;99805.00;;;26.20
22828;BMP180;11580;52.562;13.418;2023-10-13T13:55:00;99791.00;;;26.20
22828;BMP180;11580;52.562;13.418;2023-10-13T13:57:28;99798.00;;;26.20
22828;BMP180;11580;52.562;13.418;2023-10-13T13:59:56;99788.00;;;26.20
22828;BMP180;11580;52.562;13.418;2023-10-13T14:02:23;99782.00;;;26.20
22828;BMP180;11580;52.562;13.418;2023-10-13T14:04:52;99786.00;;;26.20
22828;BMP180;11580;52.562;13.418;2023-10-13T14:07:19;99775.00;;;26.10
22828;BMP180;11580;52.562;13.418;2023-10-13T14:09:49;99767.00;;;26.10
22828;BMP180;11580;52.562;13.418;2023-10-13T14:12:19;99774.00;;;26.10
22828;BMP180;11580;52.562;13.418;2023-10-13T14:14:55;99760.00;;;26.10
22828;BMP180;11580;52.562;13.418;2023-10-13T14:17:23;99760.00;;;26.10
22828;BMP180;11580;52.562;13.418;2023-10-13T14:19:56;99744.00;;;26.10
22828;BMP180;11580;52.562;13.418;2023-10-13T14:22:23;99751.00;;;26.10
22828;BMP180;11580;52.562;13.418;2023-10-13T14:24:52;99755.00;;;26.10
22828;BMP180;11580;52.562;13.418;2023-10-13T14:27:23;99745.00;;;26.10
22828;BMP180;11580;52.562;13.418;2023-10-13T14:29:51;99749.00;;;26.10
22828;BMP180;11580;52.562;13.418;2023-10-13T14:32:23;99746.00;;;26.00
22828;BMP180;11580;52.562;13.418;2023-10-13T14:34:53;99754.00;;;26.00